Lohrville, Wisconsin
Current Conditions -  °F | °C
As of 7:56 AM on Friday 28 Nov 2014 (Local Time) from KY50 Reporting Station
Overcast Overcast  
Wind Chill:   Ceiling: 6000
Heat Index: 13°   Visibility: 10mi
Dew Point: 10°   Wind: 6mph
Humidity: 88%   Direction: 110°ESE
Pressure: 30.17"   Gusts: NA
Location:  44.0643°N, 89.0804°W
Report Text: KY50 281356Z AUTO 11005KT 10SM OVC060 M11/M12 A3017 RMK AO2 TSNO T11051122 SNE15 P0000 SLP234
Loading
Personal Weather Stations






























Interactive Weather Map New forecast layout! Learn more

10-Day Weather Forecast

Advertisements
Track Severe Weather on mobile